sensor_id;sensor_type;location;lat;lon;timestamp;P1;durP1;ratioP1;P2;durP2;ratioP2
77978;SDS011;67169;50.268;8.694;2023-08-30T00:02:23;0.43;;;0.43;;
77978;SDS011;67169;50.268;8.694;2023-08-30T00:04:49;0.20;;;0.20;;
77978;SDS011;67169;50.268;8.694;2023-08-30T00:07:16;0.73;;;0.50;;
77978;SDS011;67169;50.268;8.694;2023-08-30T00:09:43;0.40;;;0.40;;
77978;SDS011;67169;50.268;8.694;2023-08-30T00:12:09;0.50;;;0.40;;
77978;SDS011;67169;50.268;8.694;2023-08-30T00:14:37;0.45;;;0.45;;
77978;SDS011;67169;50.268;8.694;2023-08-30T00:17:04;0.47;;;0.40;;
77978;SDS011;67169;50.268;8.694;2023-08-30T00:19:30;0.52;;;0.50;;
77978;SDS011;67169;50.268;8.694;2023-08-30T00:21:57;0.98;;;0.77;;
77978;SDS011;67169;50.268;8.694;2023-08-30T00:24:23;0.80;;;0.70;;
77978;SDS011;67169;50.268;8.694;2023-08-30T00:26:50;1.10;;;0.73;;
77978;SDS011;67169;50.268;8.694;2023-08-30T00:29:16;0.70;;;0.70;;
77978;SDS011;67169;50.268;8.694;2023-08-30T00:31:44;1.00;;;0.50;;
77978;SDS011;67169;50.268;8.694;2023-08-30T00:34:11;0.82;;;0.77;;
77978;SDS011;67169;50.268;8.694;2023-08-30T00:36:38;0.50;;;0.50;;
77978;SDS011;67169;50.268;8.694;2023-08-30T00:39:04;0.95;;;0.80;;
77978;SDS011;67169;50.268;8.694;2023-08-30T00:41:31;1.10;;;1.00;;
77978;SDS011;67169;50.268;8.694;2023-08-30T00:43:57;0.32;;;0.32;;
77978;SDS011;67169;50.268;8.694;2023-08-30T00:46:24;1.15;;;1.02;;
77978;SDS011;67169;50.268;8.694;2023-08-30T00:48:52;1.05;;;0.57;;
77978;SDS011;67169;50.268;8.694;2023-08-30T00:51:19;0.60;;;0.60;;
77978;SDS011;67169;50.268;8.694;2023-08-30T00:53:46;0.82;;;0.75;;
77978;SDS011;67169;50.268;8.694;2023-08-30T00:56:14;0.85;;;0.73;;
77978;SDS011;67169;50.268;8.694;2023-08-30T00:58:41;0.82;;;0.68;;
77978;SDS011;67169;50.268;8.694;2023-08-30T01:01:08;0.63;;;0.52;;
77978;SDS011;67169;50.268;8.694;2023-08-30T01:03:35;0.45;;;0.45;;
77978;SDS011;67169;50.268;8.694;2023-08-30T01:06:04;0.32;;;0.32;;
77978;SDS011;67169;50.268;8.694;2023-08-30T01:08:30;0.55;;;0.32;;
77978;SDS011;67169;50.268;8.694;2023-08-30T01:10:59;0.73;;;0.73;;
77978;SDS011;67169;50.268;8.694;2023-08-30T01:13:32;0.82;;;0.82;;
77978;SDS011;67169;50.268;8.694;2023-08-30T01:16:03;0.57;;;0.50;;
77978;SDS011;67169;50.268;8.694;2023-08-30T01:21:00;0.90;;;0.43;;
77978;SDS011;67169;50.268;8.694;2023-08-30T01:23:34;0.98;;;0.47;;
77978;SDS011;67169;50.268;8.694;2023-08-30T01:26:08;0.43;;;0.40;;
77978;SDS011;67169;50.268;8.694;2023-08-30T01:28:41;0.82;;;0.77;;
77978;SDS011;67169;50.268;8.694;2023-08-30T01:31:08;0.82;;;0.43;;
77978;SDS011;67169;50.268;8.694;2023-08-30T01:33:35;0.43;;;0.43;;
77978;SDS011;67169;50.268;8.694;2023-08-30T01:36:04;1.38;;;0.60;;
77978;SDS011;67169;50.268;8.694;2023-08-30T01:38:32;0.32;;;0.32;;
77978;SDS011;67169;50.268;8.694;2023-08-30T01:40:59;0.45;;;0.45;;
77978;SDS011;67169;50.268;8.694;2023-08-30T01:45:56;0.32;;;0.32;;
77978;SDS011;67169;50.268;8.694;2023-08-30T01:48:25;0.60;;;0.52;;
77978;SDS011;67169;50.268;8.694;2023-08-30T01:50:54;0.98;;;0.47;;
77978;SDS011;67169;50.268;8.694;2023-08-30T01:53:23;0.50;;;0.40;;
77978;SDS011;67169;50.268;8.694;2023-08-30T01:55:51;1.00;;;0.43;;
77978;SDS011;67169;50.268;8.694;2023-08-30T01:58:18;0.80;;;0.40;;
77978;SDS011;67169;50.268;8.694;2023-08-30T02:00:44;0.55;;;0.55;;
77978;SDS011;67169;50.268;8.694;2023-08-30T02:03:13;0.50;;;0.50;;
77978;SDS011;67169;50.268;8.694;2023-08-30T02:05:43;0.75;;;0.65;;
77978;SDS011;67169;50.268;8.694;2023-08-30T02:08:18;0.50;;;0.35;;
77978;SDS011;67169;50.268;8.694;2023-08-30T02:10:48;0.82;;;0.50;;
77978;SDS011;67169;50.268;8.694;2023-08-30T02:13:25;0.40;;;0.40;;
77978;SDS011;67169;50.268;8.694;2023-08-30T02:15:53;0.40;;;0.25;;
77978;SDS011;67169;50.268;8.694;2023-08-30T02:18:23;1.27;;;0.40;;
77978;SDS011;67169;50.268;8.694;2023-08-30T02:20:50;0.60;;;0.60;;
77978;SDS011;67169;50.268;8.694;2023-08-30T02:23:16;2.05;;;0.98;;
77978;SDS011;67169;50.268;8.694;2023-08-30T02:25:43;0.65;;;0.65;;
77978;SDS011;67169;50.268;8.694;2023-08-30T02:28:12;0.77;;;0.77;;
77978;SDS011;67169;50.268;8.694;2023-08-30T02:30:39;0.55;;;0.50;;
77978;SDS011;67169;50.268;8.694;2023-08-30T02:33:05;1.65;;;0.85;;
77978;SDS011;67169;50.268;8.694;2023-08-30T02:35:33;0.77;;;0.57;;
77978;SDS011;67169;50.268;8.694;2023-08-30T02:38:00;0.73;;;0.73;;
77978;SDS011;67169;50.268;8.694;2023-08-30T02:40:29;0.47;;;0.45;;
77978;SDS011;67169;50.268;8.694;2023-08-30T02:42:56;0.68;;;0.63;;
77978;SDS011;67169;50.268;8.694;2023-08-30T02:45:23;1.05;;;0.52;;
77978;SDS011;67169;50.268;8.694;2023-08-30T02:47:49;0.75;;;0.52;;
77978;SDS011;67169;50.268;8.694;2023-08-30T02:50:16;1.02;;;0.98;;
77978;SDS011;67169;50.268;8.694;2023-08-30T02:52:44;1.65;;;0.50;;
77978;SDS011;67169;50.268;8.694;2023-08-30T02:55:10;0.55;;;0.55;;
77978;SDS011;67169;50.268;8.694;2023-08-30T02:57:37;0.60;;;0.60;;
77978;SDS011;67169;50.268;8.694;2023-08-30T03:00:04;1.60;;;0.85;;
77978;SDS011;67169;50.268;8.694;2023-08-30T03:04:58;1.20;;;0.80;;
77978;SDS011;67169;50.268;8.694;2023-08-30T03:07:25;1.27;;;1.17;;
77978;SDS011;67169;50.268;8.694;2023-08-30T03:09:53;6.00;;;0.52;;
77978;SDS011;67169;50.268;8.694;2023-08-30T03:12:20;0.70;;;0.50;;
77978;SDS011;67169;50.268;8.694;2023-08-30T03:14:47;0.60;;;0.50;;
77978;SDS011;67169;50.268;8.694;2023-08-30T03:17:13;0.38;;;0.38;;
77978;SDS011;67169;50.268;8.694;2023-08-30T03:19:40;1.45;;;0.68;;
77978;SDS011;67169;50.268;8.694;2023-08-30T03:22:06;0.60;;;0.57;;
77978;SDS011;67169;50.268;8.694;2023-08-30T03:24:33;0.65;;;0.65;;
77978;SDS011;67169;50.268;8.694;2023-08-30T03:27:01;0.70;;;0.70;;
77978;SDS011;67169;50.268;8.694;2023-08-30T03:29:28;0.70;;;0.70;;
77978;SDS011;67169;50.268;8.694;2023-08-30T03:31:55;0.60;;;0.47;;
77978;SDS011;67169;50.268;8.694;2023-08-30T03:34:21;0.55;;;0.52;;
77978;SDS011;67169;50.268;8.694;2023-08-30T03:36:48;0.52;;;0.52;;
77978;SDS011;67169;50.268;8.694;2023-08-30T03:39:19;0.65;;;0.65;;
77978;SDS011;67169;50.268;8.694;2023-08-30T03:41:46;0.55;;;0.50;;
77978;SDS011;67169;50.268;8.694;2023-08-30T03:44:14;0.43;;;0.43;;
77978;SDS011;67169;50.268;8.694;2023-08-30T03:46:40;1.80;;;1.30;;
77978;SDS011;67169;50.268;8.694;2023-08-30T03:49:07;0.43;;;0.38;;
77978;SDS011;67169;50.268;8.694;2023-08-30T03:51:33;1.35;;;0.70;;
77978;SDS011;67169;50.268;8.694;2023-08-30T03:54:00;1.52;;;1.23;;
77978;SDS011;67169;50.268;8.694;2023-08-30T03:56:27;1.05;;;0.80;;
77978;SDS011;67169;50.268;8.694;2023-08-30T03:58:53;0.70;;;0.70;;
77978;SDS011;67169;50.268;8.694;2023-08-30T04:01:21;1.15;;;0.77;;
77978;SDS011;67169;50.268;8.694;2023-08-30T04:03:48;3.20;;;0.98;;
77978;SDS011;67169;50.268;8.694;2023-08-30T04:06:14;1.33;;;0.57;;
77978;SDS011;67169;50.268;8.694;2023-08-30T04:08:41;0.85;;;0.65;;
77978;SDS011;67169;50.268;8.694;2023-08-30T04:11:07;1.48;;;1.00;;
77978;SDS011;67169;50.268;8.694;2023-08-30T04:13:34;1.10;;;0.70;;
77978;SDS011;67169;50.268;8.694;2023-08-30T04:16:00;0.90;;;0.90;;
77978;SDS011;67169;50.268;8.694;2023-08-30T04:18:30;0.85;;;0.63;;
77978;SDS011;67169;50.268;8.694;2023-08-30T04:20:57;1.15;;;0.73;;
77978;SDS011;67169;50.268;8.694;2023-08-30T04:23:27;1.20;;;0.80;;
77978;SDS011;67169;50.268;8.694;2023-08-30T04:25:53;0.77;;;0.77;;
77978;SDS011;67169;50.268;8.694;2023-08-30T04:28:20;3.30;;;0.98;;
77978;SDS011;67169;50.268;8.694;2023-08-30T04:30:47;3.50;;;0.75;;
77978;SDS011;67169;50.268;8.694;2023-08-30T04:33:13;0.82;;;0.82;;
77978;SDS011;67169;50.268;8.694;2023-08-30T04:35:41;1.10;;;1.08;;
77978;SDS011;67169;50.268;8.694;2023-08-30T04:38:08;0.80;;;0.65;;
77978;SDS011;67169;50.268;8.694;2023-08-30T04:40:34;1.58;;;1.00;;
77978;SDS011;67169;50.268;8.694;2023-08-30T04:43:01;0.60;;;0.60;;
77978;SDS011;67169;50.268;8.694;2023-08-30T04:45:28;0.73;;;0.73;;
77978;SDS011;67169;50.268;8.694;2023-08-30T04:47:55;0.68;;;0.68;;
77978;SDS011;67169;50.268;8.694;2023-08-30T04:50:21;1.17;;;0.88;;
77978;SDS011;67169;50.268;8.694;2023-08-30T04:52:49;0.60;;;0.57;;
77978;SDS011;67169;50.268;8.694;2023-08-30T04:55:16;1.38;;;0.50;;
77978;SDS011;67169;50.268;8.694;2023-08-30T04:57:43;0.95;;;0.63;;
77978;SDS011;67169;50.268;8.694;2023-08-30T05:00:10;0.60;;;0.60;;
77978;SDS011;67169;50.268;8.694;2023-08-30T05:02:37;1.63;;;0.93;;
77978;SDS011;67169;50.268;8.694;2023-08-30T05:05:04;0.90;;;0.70;;
77978;SDS011;67169;50.268;8.694;2023-08-30T05:07:31;1.10;;;1.00;;
77978;SDS011;67169;50.268;8.694;2023-08-30T05:09:59;1.02;;;0.80;;
77978;SDS011;67169;50.268;8.694;2023-08-30T05:12:26;1.13;;;0.80;;
77978;SDS011;67169;50.268;8.694;2023-08-30T05:14:52;1.55;;;1.45;;
77978;SDS011;67169;50.268;8.694;2023-08-30T05:17:19;0.98;;;0.90;;
77978;SDS011;67169;50.268;8.694;2023-08-30T05:19:46;1.02;;;0.93;;
77978;SDS011;67169;50.268;8.694;2023-08-30T05:22:12;1.30;;;1.20;;
77978;SDS011;67169;50.268;8.694;2023-08-30T05:24:39;1.08;;;1.08;;
77978;SDS011;67169;50.268;8.694;2023-08-30T05:27:07;2.05;;;1.17;;
77978;SDS011;67169;50.268;8.694;2023-08-30T05:29:33;1.60;;;1.35;;
77978;SDS011;67169;50.268;8.694;2023-08-30T05:32:00;0.82;;;0.80;;
77978;SDS011;67169;50.268;8.694;2023-08-30T05:34:27;3.08;;;1.40;;
77978;SDS011;67169;50.268;8.694;2023-08-30T05:36:53;1.35;;;1.20;;
77978;SDS011;67169;50.268;8.694;2023-08-30T05:39:20;2.08;;;1.75;;
77978;SDS011;67169;50.268;8.694;2023-08-30T05:41:46;3.00;;;1.70;;
77978;SDS011;67169;50.268;8.694;2023-08-30T05:44:14;1.67;;;1.58;;
77978;SDS011;67169;50.268;8.694;2023-08-30T05:46:41;2.47;;;1.75;;
77978;SDS011;67169;50.268;8.694;2023-08-30T05:49:07;1.48;;;1.35;;
77978;SDS011;67169;50.268;8.694;2023-08-30T05:51:34;2.05;;;1.58;;
77978;SDS011;67169;50.268;8.694;2023-08-30T05:54:01;1.95;;;1.60;;
77978;SDS011;67169;50.268;8.694;2023-08-30T05:56:27;2.03;;;1.30;;
77978;SDS011;67169;50.268;8.694;2023-08-30T05:58:54;1.77;;;1.15;;
77978;SDS011;67169;50.268;8.694;2023-08-30T06:01:22;2.90;;;1.25;;
77978;SDS011;67169;50.268;8.694;2023-08-30T06:03:48;2.92;;;2.10;;
77978;SDS011;67169;50.268;8.694;2023-08-30T06:06:15;1.73;;;1.40;;
77978;SDS011;67169;50.268;8.694;2023-08-30T06:08:42;1.00;;;0.95;;
77978;SDS011;67169;50.268;8.694;2023-08-30T06:11:08;1.60;;;1.35;;
77978;SDS011;67169;50.268;8.694;2023-08-30T06:13:35;3.03;;;1.83;;
77978;SDS011;67169;50.268;8.694;2023-08-30T06:16:02;1.80;;;1.38;;
77978;SDS011;67169;50.268;8.694;2023-08-30T06:18:31;3.53;;;1.27;;
77978;SDS011;67169;50.268;8.694;2023-08-30T06:20:58;1.63;;;1.15;;
77978;SDS011;67169;50.268;8.694;2023-08-30T06:23:24;2.20;;;1.17;;
77978;SDS011;67169;50.268;8.694;2023-08-30T06:25:54;2.95;;;2.10;;
77978;SDS011;67169;50.268;8.694;2023-08-30T06:28:21;2.63;;;1.73;;
77978;SDS011;67169;50.268;8.694;2023-08-30T06:30:48;2.83;;;1.52;;
77978;SDS011;67169;50.268;8.694;2023-08-30T06:33:14;2.00;;;1.90;;
77978;SDS011;67169;50.268;8.694;2023-08-30T06:35:42;2.88;;;1.88;;
77978;SDS011;67169;50.268;8.694;2023-08-30T06:38:09;3.22;;;2.20;;
77978;SDS011;67169;50.268;8.694;2023-08-30T06:40:36;1.92;;;1.60;;
77978;SDS011;67169;50.268;8.694;2023-08-30T06:43:03;3.80;;;1.98;;
77978;SDS011;67169;50.268;8.694;2023-08-30T06:45:29;5.95;;;2.50;;
77978;SDS011;67169;50.268;8.694;2023-08-30T06:47:56;5.22;;;3.45;;
77978;SDS011;67169;50.268;8.694;2023-08-30T06:50:23;5.53;;;2.75;;
77978;SDS011;67169;50.268;8.694;2023-08-30T06:52:50;5.47;;;3.35;;
77978;SDS011;67169;50.268;8.694;2023-08-30T06:55:17;5.28;;;2.75;;
77978;SDS011;67169;50.268;8.694;2023-08-30T06:57:47;4.47;;;2.75;;
77978;SDS011;67169;50.268;8.694;2023-08-30T07:00:16;6.90;;;3.70;;
77978;SDS011;67169;50.268;8.694;2023-08-30T07:02:43;5.80;;;3.28;;
77978;SDS011;67169;50.268;8.694;2023-08-30T07:05:10;9.00;;;4.50;;
77978;SDS011;67169;50.268;8.694;2023-08-30T07:07:37;7.20;;;4.13;;
77978;SDS011;67169;50.268;8.694;2023-08-30T07:10:05;7.60;;;4.15;;
77978;SDS011;67169;50.268;8.694;2023-08-30T07:12:32;7.72;;;4.32;;
77978;SDS011;67169;50.268;8.694;2023-08-30T07:14:59;7.55;;;5.05;;
77978;SDS011;67169;50.268;8.694;2023-08-30T07:17:25;7.03;;;4.25;;
77978;SDS011;67169;50.268;8.694;2023-08-30T07:19:52;6.85;;;4.43;;
77978;SDS011;67169;50.268;8.694;2023-08-30T07:22:19;9.15;;;4.85;;
77978;SDS011;67169;50.268;8.694;2023-08-30T07:24:45;7.57;;;4.57;;
77978;SDS011;67169;50.268;8.694;2023-08-30T07:27:13;7.00;;;4.13;;
77978;SDS011;67169;50.268;8.694;2023-08-30T07:29:40;11.60;;;5.03;;
77978;SDS011;67169;50.268;8.694;2023-08-30T07:32:06;5.15;;;3.00;;
77978;SDS011;67169;50.268;8.694;2023-08-30T07:37:01;5.93;;;3.38;;
77978;SDS011;67169;50.268;8.694;2023-08-30T07:39:27;8.85;;;5.15;;
77978;SDS011;67169;50.268;8.694;2023-08-30T07:41:54;9.20;;;5.32;;
77978;SDS011;67169;50.268;8.694;2023-08-30T07:44:22;9.90;;;4.47;;
77978;SDS011;67169;50.268;8.694;2023-08-30T07:46:49;10.10;;;5.68;;
77978;SDS011;67169;50.268;8.694;2023-08-30T07:49:15;7.95;;;4.40;;
77978;SDS011;67169;50.268;8.694;2023-08-30T07:51:42;9.10;;;5.90;;
77978;SDS011;67169;50.268;8.694;2023-08-30T07:54:08;6.32;;;4.43;;
77978;SDS011;67169;50.268;8.694;2023-08-30T07:56:35;10.18;;;5.30;;
77978;SDS011;67169;50.268;8.694;2023-08-30T07:59:02;6.75;;;5.00;;
77978;SDS011;67169;50.268;8.694;2023-08-30T08:01:30;7.00;;;4.57;;
77978;SDS011;67169;50.268;8.694;2023-08-30T08:03:56;5.93;;;4.32;;
77978;SDS011;67169;50.268;8.694;2023-08-30T08:06:23;5.18;;;4.25;;
77978;SDS011;67169;50.268;8.694;2023-08-30T08:08:49;9.75;;;4.40;;
77978;SDS011;67169;50.268;8.694;2023-08-30T08:11:16;7.20;;;4.35;;
77978;SDS011;67169;50.268;8.694;2023-08-30T08:13:43;6.25;;;3.85;;
77978;SDS011;67169;50.268;8.694;2023-08-30T08:16:09;6.28;;;4.13;;
77978;SDS011;67169;50.268;8.694;2023-08-30T08:18:38;6.07;;;3.97;;
77978;SDS011;67169;50.268;8.694;2023-08-30T08:21:05;6.35;;;3.67;;
77978;SDS011;67169;50.268;8.694;2023-08-30T08:23:31;7.32;;;4.15;;
77978;SDS011;67169;50.268;8.694;2023-08-30T08:25:58;5.43;;;3.75;;
77978;SDS011;67169;50.268;8.694;2023-08-30T08:28:25;9.05;;;4.72;;
77978;SDS011;67169;50.268;8.694;2023-08-30T08:30:52;6.95;;;3.97;;
77978;SDS011;67169;50.268;8.694;2023-08-30T08:33:18;5.30;;;2.80;;
77978;SDS011;67169;50.268;8.694;2023-08-30T08:35:49;4.60;;;3.53;;
77978;SDS011;67169;50.268;8.694;2023-08-30T08:38:15;2.95;;;2.28;;
77978;SDS011;67169;50.268;8.694;2023-08-30T08:40:42;4.43;;;2.67;;
77978;SDS011;67169;50.268;8.694;2023-08-30T08:43:09;3.47;;;2.40;;
77978;SDS011;67169;50.268;8.694;2023-08-30T08:45:37;3.22;;;2.60;;
77978;SDS011;67169;50.268;8.694;2023-08-30T08:48:04;3.45;;;2.40;;
77978;SDS011;67169;50.268;8.694;2023-08-30T08:50:31;3.53;;;2.95;;
77978;SDS011;67169;50.268;8.694;2023-08-30T08:53:00;3.17;;;2.35;;
77978;SDS011;67169;50.268;8.694;2023-08-30T08:55:28;6.03;;;2.60;;
77978;SDS011;67169;50.268;8.694;2023-08-30T08:57:56;2.83;;;2.15;;
77978;SDS011;67169;50.268;8.694;2023-08-30T09:02:50;3.58;;;3.00;;
77978;SDS011;67169;50.268;8.694;2023-08-30T09:05:19;3.00;;;1.90;;
77978;SDS011;67169;50.268;8.694;2023-08-30T09:07:47;4.00;;;2.50;;
77978;SDS011;67169;50.268;8.694;2023-08-30T09:10:17;3.80;;;1.90;;
77978;SDS011;67169;50.268;8.694;2023-08-30T09:12:44;5.13;;;3.08;;
77978;SDS011;67169;50.268;8.694;2023-08-30T09:15:10;3.05;;;2.28;;
77978;SDS011;67169;50.268;8.694;2023-08-30T09:17:37;3.72;;;2.33;;
77978;SDS011;67169;50.268;8.694;2023-08-30T09:20:05;3.58;;;2.95;;
77978;SDS011;67169;50.268;8.694;2023-08-30T09:22:35;3.83;;;2.75;;
77978;SDS011;67169;50.268;8.694;2023-08-30T09:25:02;4.57;;;2.28;;
77978;SDS011;67169;50.268;8.694;2023-08-30T09:27:34;3.45;;;2.35;;
77978;SDS011;67169;50.268;8.694;2023-08-30T09:30:02;3.33;;;2.22;;
77978;SDS011;67169;50.268;8.694;2023-08-30T09:32:30;3.00;;;2.13;;
77978;SDS011;67169;50.268;8.694;2023-08-30T09:34:57;3.25;;;2.42;;
77978;SDS011;67169;50.268;8.694;2023-08-30T09:37:23;3.97;;;2.80;;
77978;SDS011;67169;50.268;8.694;2023-08-30T09:39:51;3.58;;;2.38;;
77978;SDS011;67169;50.268;8.694;2023-08-30T09:42:18;2.65;;;2.15;;
77978;SDS011;67169;50.268;8.694;2023-08-30T09:44:46;2.13;;;1.92;;
77978;SDS011;67169;50.268;8.694;2023-08-30T09:47:13;2.40;;;2.00;;
77978;SDS011;67169;50.268;8.694;2023-08-30T09:49:42;2.45;;;2.00;;
77978;SDS011;67169;50.268;8.694;2023-08-30T09:52:10;2.60;;;1.98;;
77978;SDS011;67169;50.268;8.694;2023-08-30T09:54:40;3.08;;;2.10;;
77978;SDS011;67169;50.268;8.694;2023-08-30T09:57:09;2.10;;;1.85;;
77978;SDS011;67169;50.268;8.694;2023-08-30T09:59:36;2.70;;;2.25;;
77978;SDS011;67169;50.268;8.694;2023-08-30T10:02:06;2.90;;;1.90;;
77978;SDS011;67169;50.268;8.694;2023-08-30T10:04:35;2.55;;;1.75;;
77978;SDS011;67169;50.268;8.694;2023-08-30T10:07:05;2.80;;;1.85;;
77978;SDS011;67169;50.268;8.694;2023-08-30T10:09:32;2.92;;;2.17;;
77978;SDS011;67169;50.268;8.694;2023-08-30T10:11:59;2.97;;;2.53;;
77978;SDS011;67169;50.268;8.694;2023-08-30T10:14:28;2.20;;;2.05;;
77978;SDS011;67169;50.268;8.694;2023-08-30T10:16:56;2.60;;;2.05;;
77978;SDS011;67169;50.268;8.694;2023-08-30T10:19:28;3.75;;;1.92;;
77978;SDS011;67169;50.268;8.694;2023-08-30T10:21:57;3.25;;;1.70;;
77978;SDS011;67169;50.268;8.694;2023-08-30T10:24:28;1.75;;;1.50;;
77978;SDS011;67169;50.268;8.694;2023-08-30T10:26:57;3.47;;;2.50;;
77978;SDS011;67169;50.268;8.694;2023-08-30T10:29:26;3.15;;;2.50;;
77978;SDS011;67169;50.268;8.694;2023-08-30T10:31:54;2.70;;;1.90;;
77978;SDS011;67169;50.268;8.694;2023-08-30T10:34:21;2.55;;;1.63;;
77978;SDS011;67169;50.268;8.694;2023-08-30T10:36:58;5.03;;;2.17;;
77978;SDS011;67169;50.268;8.694;2023-08-30T10:39:32;2.03;;;1.50;;
77978;SDS011;67169;50.268;8.694;2023-08-30T10:42:00;2.55;;;1.42;;
77978;SDS011;67169;50.268;8.694;2023-08-30T10:44:27;1.98;;;1.38;;
77978;SDS011;67169;50.268;8.694;2023-08-30T10:46:54;2.55;;;1.60;;
77978;SDS011;67169;50.268;8.694;2023-08-30T10:49:21;1.30;;;1.20;;
77978;SDS011;67169;50.268;8.694;2023-08-30T10:51:54;2.15;;;1.30;;
77978;SDS011;67169;50.268;8.694;2023-08-30T10:54:23;1.58;;;1.48;;
77978;SDS011;67169;50.268;8.694;2023-08-30T10:56:54;1.52;;;1.42;;
77978;SDS011;67169;50.268;8.694;2023-08-30T10:59:22;1.95;;;1.20;;
77978;SDS011;67169;50.268;8.694;2023-08-30T11:01:50;2.75;;;1.48;;
77978;SDS011;67169;50.268;8.694;2023-08-30T11:04:18;0.82;;;0.82;;
77978;SDS011;67169;50.268;8.694;2023-08-30T11:06:47;1.35;;;1.10;;
77978;SDS011;67169;50.268;8.694;2023-08-30T11:09:15;2.20;;;1.35;;
77978;SDS011;67169;50.268;8.694;2023-08-30T11:11:45;1.27;;;0.90;;
77978;SDS011;67169;50.268;8.694;2023-08-30T11:14:13;0.98;;;0.90;;
77978;SDS011;67169;50.268;8.694;2023-08-30T11:16:40;1.30;;;0.90;;
77978;SDS011;67169;50.268;8.694;2023-08-30T11:19:07;1.25;;;1.00;;
77978;SDS011;67169;50.268;8.694;2023-08-30T11:21:36;2.15;;;1.00;;
77978;SDS011;67169;50.268;8.694;2023-08-30T11:24:04;1.00;;;1.00;;
77978;SDS011;67169;50.268;8.694;2023-08-30T11:26:31;1.48;;;0.77;;
77978;SDS011;67169;50.268;8.694;2023-08-30T11:28:59;1.65;;;0.60;;
77978;SDS011;67169;50.268;8.694;2023-08-30T11:31:30;1.00;;;0.80;;
77978;SDS011;67169;50.268;8.694;2023-08-30T11:33:57;1.10;;;1.00;;
77978;SDS011;67169;50.268;8.694;2023-08-30T11:36:26;0.88;;;0.88;;
77978;SDS011;67169;50.268;8.694;2023-08-30T11:38:53;1.33;;;0.85;;
77978;SDS011;67169;50.268;8.694;2023-08-30T11:43:47;1.02;;;0.82;;
77978;SDS011;67169;50.268;8.694;2023-08-30T11:46:15;1.08;;;0.98;;
77978;SDS011;67169;50.268;8.694;2023-08-30T11:48:42;1.17;;;1.08;;
77978;SDS011;67169;50.268;8.694;2023-08-30T11:51:10;1.75;;;1.08;;
77978;SDS011;67169;50.268;8.694;2023-08-30T11:53:37;0.70;;;0.70;;
77978;SDS011;67169;50.268;8.694;2023-08-30T11:56:05;0.70;;;0.70;;
77978;SDS011;67169;50.268;8.694;2023-08-30T11:58:32;1.00;;;0.85;;
77978;SDS011;67169;50.268;8.694;2023-08-30T12:00:59;0.60;;;0.50;;
77978;SDS011;67169;50.268;8.694;2023-08-30T12:03:29;1.13;;;0.95;;
77978;SDS011;67169;50.268;8.694;2023-08-30T12:05:56;1.38;;;1.25;;
77978;SDS011;67169;50.268;8.694;2023-08-30T12:08:23;1.00;;;0.85;;
77978;SDS011;67169;50.268;8.694;2023-08-30T12:10:51;1.48;;;1.15;;
77978;SDS011;67169;50.268;8.694;2023-08-30T12:13:21;1.50;;;1.02;;
77978;SDS011;67169;50.268;8.694;2023-08-30T12:15:49;1.42;;;1.00;;
77978;SDS011;67169;50.268;8.694;2023-08-30T12:18:16;1.05;;;0.75;;
77978;SDS011;67169;50.268;8.694;2023-08-30T12:20:53;0.77;;;0.65;;
77978;SDS011;67169;50.268;8.694;2023-08-30T12:23:21;1.58;;;0.98;;
77978;SDS011;67169;50.268;8.694;2023-08-30T12:25:58;0.73;;;0.73;;
77978;SDS011;67169;50.268;8.694;2023-08-30T12:28:26;2.03;;;0.90;;
77978;SDS011;67169;50.268;8.694;2023-08-30T12:30:54;0.65;;;0.60;;
77978;SDS011;67169;50.268;8.694;2023-08-30T12:33:21;1.35;;;0.75;;
77978;SDS011;67169;50.268;8.694;2023-08-30T12:35:48;1.80;;;1.30;;
77978;SDS011;67169;50.268;8.694;2023-08-30T12:38:16;1.08;;;0.98;;
77978;SDS011;67169;50.268;8.694;2023-08-30T12:40:44;1.67;;;0.85;;
77978;SDS011;67169;50.268;8.694;2023-08-30T12:43:11;2.17;;;0.93;;
77978;SDS011;67169;50.268;8.694;2023-08-30T12:45:38;0.70;;;0.70;;
77978;SDS011;67169;50.268;8.694;2023-08-30T12:48:05;1.10;;;0.82;;
77978;SDS011;67169;50.268;8.694;2023-08-30T12:50:32;1.95;;;0.70;;
77978;SDS011;67169;50.268;8.694;2023-08-30T12:52:59;1.55;;;0.85;;
77978;SDS011;67169;50.268;8.694;2023-08-30T12:55:27;1.15;;;0.85;;
77978;SDS011;67169;50.268;8.694;2023-08-30T12:57:53;1.27;;;1.00;;
77978;SDS011;67169;50.268;8.694;2023-08-30T13:00:20;1.33;;;0.85;;
77978;SDS011;67169;50.268;8.694;2023-08-30T13:02:47;0.70;;;0.70;;
77978;SDS011;67169;50.268;8.694;2023-08-30T13:05:14;1.27;;;0.55;;
77978;SDS011;67169;50.268;8.694;2023-08-30T13:07:40;0.82;;;0.70;;
77978;SDS011;67169;50.268;8.694;2023-08-30T13:10:07;2.08;;;1.02;;
77978;SDS011;67169;50.268;8.694;2023-08-30T13:12:36;1.48;;;1.10;;
77978;SDS011;67169;50.268;8.694;2023-08-30T13:15:02;0.70;;;0.70;;
77978;SDS011;67169;50.268;8.694;2023-08-30T13:17:29;1.58;;;0.77;;
77978;SDS011;67169;50.268;8.694;2023-08-30T13:19:56;1.23;;;1.10;;
77978;SDS011;67169;50.268;8.694;2023-08-30T13:22:23;1.90;;;0.95;;
77978;SDS011;67169;50.268;8.694;2023-08-30T13:24:50;1.35;;;0.70;;
77978;SDS011;67169;50.268;8.694;2023-08-30T13:27:17;1.95;;;1.23;;
77978;SDS011;67169;50.268;8.694;2023-08-30T13:29:45;1.00;;;0.90;;
77978;SDS011;67169;50.268;8.694;2023-08-30T13:32:13;1.13;;;0.95;;
77978;SDS011;67169;50.268;8.694;2023-08-30T13:34:39;1.38;;;1.10;;
77978;SDS011;67169;50.268;8.694;2023-08-30T13:37:08;1.88;;;1.08;;
77978;SDS011;67169;50.268;8.694;2023-08-30T13:39:35;0.85;;;0.82;;
77978;SDS011;67169;50.268;8.694;2023-08-30T13:42:02;1.60;;;1.10;;
77978;SDS011;67169;50.268;8.694;2023-08-30T13:44:29;1.15;;;0.90;;
77978;SDS011;67169;50.268;8.694;2023-08-30T13:46:58;1.08;;;0.82;;
77978;SDS011;67169;50.268;8.694;2023-08-30T13:49:25;2.28;;;1.35;;
77978;SDS011;67169;50.268;8.694;2023-08-30T13:51:52;1.38;;;0.95;;
77978;SDS011;67169;50.268;8.694;2023-08-30T13:54:19;0.95;;;0.90;;
77978;SDS011;67169;50.268;8.694;2023-08-30T13:56:45;0.95;;;0.60;;
77978;SDS011;67169;50.268;8.694;2023-08-30T13:59:12;0.60;;;0.60;;
77978;SDS011;67169;50.268;8.694;2023-08-30T14:01:39;1.33;;;1.00;;
77978;SDS011;67169;50.268;8.694;2023-08-30T14:04:07;1.23;;;1.10;;
77978;SDS011;67169;50.268;8.694;2023-08-30T14:06:34;1.17;;;0.65;;
77978;SDS011;67169;50.268;8.694;2023-08-30T14:09:01;1.00;;;0.80;;
77978;SDS011;67169;50.268;8.694;2023-08-30T14:11:29;0.60;;;0.50;;
77978;SDS011;67169;50.268;8.694;2023-08-30T14:13:56;1.20;;;0.80;;
77978;SDS011;67169;50.268;8.694;2023-08-30T14:16:22;1.45;;;0.70;;
77978;SDS011;67169;50.268;8.694;2023-08-30T14:18:49;1.33;;;0.70;;
77978;SDS011;67169;50.268;8.694;2023-08-30T14:21:17;1.25;;;1.10;;
77978;SDS011;67169;50.268;8.694;2023-08-30T14:23:43;1.85;;;0.90;;
77978;SDS011;67169;50.268;8.694;2023-08-30T14:26:10;1.75;;;0.70;;
77978;SDS011;67169;50.268;8.694;2023-08-30T14:28:38;1.27;;;1.00;;
77978;SDS011;67169;50.268;8.694;2023-08-30T14:33:32;1.00;;;0.90;;
77978;SDS011;67169;50.268;8.694;2023-08-30T14:35:59;0.88;;;0.88;;
77978;SDS011;67169;50.268;8.694;2023-08-30T14:38:28;1.98;;;1.10;;
77978;SDS011;67169;50.268;8.694;2023-08-30T14:40:55;1.23;;;0.70;;
77978;SDS011;67169;50.268;8.694;2023-08-30T14:43:22;1.02;;;0.75;;
77978;SDS011;67169;50.268;8.694;2023-08-30T14:45:49;1.92;;;0.60;;
77978;SDS011;67169;50.268;8.694;2023-08-30T14:48:15;0.93;;;0.80;;
77978;SDS011;67169;50.268;8.694;2023-08-30T14:50:42;3.45;;;1.00;;
77978;SDS011;67169;50.268;8.694;2023-08-30T14:53:08;1.27;;;0.90;;
77978;SDS011;67169;50.268;8.694;2023-08-30T14:55:36;0.98;;;0.70;;
77978;SDS011;67169;50.268;8.694;2023-08-30T14:58:03;7.45;;;0.98;;
77978;SDS011;67169;50.268;8.694;2023-08-30T15:00:30;1.30;;;0.68;;
77978;SDS011;67169;50.268;8.694;2023-08-30T15:02:56;2.83;;;1.27;;
77978;SDS011;67169;50.268;8.694;2023-08-30T15:05:23;1.48;;;0.60;;
77978;SDS011;67169;50.268;8.694;2023-08-30T15:07:49;0.98;;;0.55;;